Terminal Aerodrome Forecast
Issued by NWS

Home | Current Version | Previous Version | Text Only | Print | Product List | Glossary On
Versions: 1 2 3 4 5 6 7 8 9 10 11 12 13 14 15 16 17 18 19
000
FTUS41 KBGM 010530
TAFELM
TAF
KELM 010530Z 0106/0206 VRB03KT P6SM FEW250
      TEMPO 0108/0112 2SM BR SCT008
     FM011500 00000KT P6SM SCT050
     FM020100 15006KT P6SM FEW250=

USA.gov is the U.S. government's official web portal to all federal, state and local government web resources and services.